sensor_id;sensor_type;location;lat;lon;timestamp;P1;durP1;ratioP1;P2;durP2;ratioP2
6529;SDS011;3298;42.688;23.366;2023-03-03T00:00:31;3.93;;;3.13;;
6529;SDS011;3298;42.688;23.366;2023-03-03T00:02:59;3.43;;;3.23;;
6529;SDS011;3298;42.688;23.366;2023-03-03T00:05:32;4.17;;;3.17;;
6529;SDS011;3298;42.688;23.366;2023-03-03T00:07:59;3.90;;;3.67;;
6529;SDS011;3298;42.688;23.366;2023-03-03T00:10:26;3.33;;;2.90;;
6529;SDS011;3298;42.688;23.366;2023-03-03T00:12:53;3.83;;;3.53;;
6529;SDS011;3298;42.688;23.366;2023-03-03T00:15:21;4.10;;;3.80;;
6529;SDS011;3298;42.688;23.366;2023-03-03T00:17:49;4.70;;;4.30;;
6529;SDS011;3298;42.688;23.366;2023-03-03T00:20:31;4.57;;;4.27;;
6529;SDS011;3298;42.688;23.366;2023-03-03T00:23:16;4.40;;;3.93;;
6529;SDS011;3298;42.688;23.366;2023-03-03T00:25:47;4.93;;;4.53;;
6529;SDS011;3298;42.688;23.366;2023-03-03T00:28:19;4.60;;;4.20;;
6529;SDS011;3298;42.688;23.366;2023-03-03T00:30:49;3.83;;;3.63;;
6529;SDS011;3298;42.688;23.366;2023-03-03T00:33:20;5.70;;;5.20;;
6529;SDS011;3298;42.688;23.366;2023-03-03T00:35:55;4.53;;;4.23;;
6529;SDS011;3298;42.688;23.366;2023-03-03T00:38:22;4.07;;;3.77;;
6529;SDS011;3298;42.688;23.366;2023-03-03T00:40:49;3.73;;;3.53;;
6529;SDS011;3298;42.688;23.366;2023-03-03T00:43:17;4.00;;;3.30;;
6529;SDS011;3298;42.688;23.366;2023-03-03T00:45:47;3.70;;;3.40;;
6529;SDS011;3298;42.688;23.366;2023-03-03T00:48:20;3.70;;;3.40;;
6529;SDS011;3298;42.688;23.366;2023-03-03T00:50:49;4.60;;;4.30;;
6529;SDS011;3298;42.688;23.366;2023-03-03T00:53:18;5.07;;;4.67;;
6529;SDS011;3298;42.688;23.366;2023-03-03T00:55:47;4.80;;;4.50;;
6529;SDS011;3298;42.688;23.366;2023-03-03T00:58:14;6.60;;;5.97;;
6529;SDS011;3298;42.688;23.366;2023-03-03T01:00:43;4.80;;;4.50;;
6529;SDS011;3298;42.688;23.366;2023-03-03T01:03:11;5.97;;;4.47;;
6529;SDS011;3298;42.688;23.366;2023-03-03T01:05:39;4.60;;;4.30;;
6529;SDS011;3298;42.688;23.366;2023-03-03T01:08:06;2.27;;;2.17;;
6529;SDS011;3298;42.688;23.366;2023-03-03T01:10:35;4.67;;;4.37;;
6529;SDS011;3298;42.688;23.366;2023-03-03T01:13:07;4.00;;;3.70;;
6529;SDS011;3298;42.688;23.366;2023-03-03T01:15:34;4.60;;;4.20;;
6529;SDS011;3298;42.688;23.366;2023-03-03T01:18:01;4.00;;;3.70;;
6529;SDS011;3298;42.688;23.366;2023-03-03T01:20:28;3.77;;;3.53;;
6529;SDS011;3298;42.688;23.366;2023-03-03T01:22:55;4.87;;;4.47;;
6529;SDS011;3298;42.688;23.366;2023-03-03T01:25:21;4.27;;;3.97;;
6529;SDS011;3298;42.688;23.366;2023-03-03T01:27:49;4.03;;;3.73;;
6529;SDS011;3298;42.688;23.366;2023-03-03T01:30:16;3.67;;;3.30;;
6529;SDS011;3298;42.688;23.366;2023-03-03T01:32:43;4.40;;;4.00;;
6529;SDS011;3298;42.688;23.366;2023-03-03T01:35:10;2.90;;;2.80;;
6529;SDS011;3298;42.688;23.366;2023-03-03T01:37:37;4.43;;;4.03;;
6529;SDS011;3298;42.688;23.366;2023-03-03T01:40:04;5.00;;;4.70;;
6529;SDS011;3298;42.688;23.366;2023-03-03T01:42:32;4.43;;;4.13;;
6529;SDS011;3298;42.688;23.366;2023-03-03T01:45:17;4.57;;;4.17;;
6529;SDS011;3298;42.688;23.366;2023-03-03T01:47:50;6.40;;;4.77;;
6529;SDS011;3298;42.688;23.366;2023-03-03T01:50:27;7.23;;;6.57;;
6529;SDS011;3298;42.688;23.366;2023-03-03T01:53:09;6.03;;;4.63;;
6529;SDS011;3298;42.688;23.366;2023-03-03T01:55:39;4.57;;;4.27;;
6529;SDS011;3298;42.688;23.366;2023-03-03T01:58:08;4.17;;;3.80;;
6529;SDS011;3298;42.688;23.366;2023-03-03T02:00:40;3.60;;;3.37;;
6529;SDS011;3298;42.688;23.366;2023-03-03T02:03:10;4.60;;;3.73;;
6529;SDS011;3298;42.688;23.366;2023-03-03T02:05:37;3.70;;;3.40;;
6529;SDS011;3298;42.688;23.366;2023-03-03T02:08:07;3.90;;;3.27;;
6529;SDS011;3298;42.688;23.366;2023-03-03T02:10:37;3.30;;;3.10;;
6529;SDS011;3298;42.688;23.366;2023-03-03T02:13:04;3.33;;;3.13;;
6529;SDS011;3298;42.688;23.366;2023-03-03T02:15:31;3.27;;;3.07;;
6529;SDS011;3298;42.688;23.366;2023-03-03T02:18:02;4.03;;;3.73;;
6529;SDS011;3298;42.688;23.366;2023-03-03T02:20:33;3.73;;;3.43;;
6529;SDS011;3298;42.688;23.366;2023-03-03T02:23:09;3.80;;;3.50;;
6529;SDS011;3298;42.688;23.366;2023-03-03T02:25:43;4.87;;;3.20;;
6529;SDS011;3298;42.688;23.366;2023-03-03T02:28:18;3.60;;;3.40;;
6529;SDS011;3298;42.688;23.366;2023-03-03T02:30:46;4.07;;;3.77;;
6529;SDS011;3298;42.688;23.366;2023-03-03T02:33:13;3.93;;;3.73;;
6529;SDS011;3298;42.688;23.366;2023-03-03T02:35:40;5.53;;;4.33;;
6529;SDS011;3298;42.688;23.366;2023-03-03T02:38:13;5.27;;;4.77;;
6529;SDS011;3298;42.688;23.366;2023-03-03T02:40:50;5.63;;;4.70;;
6529;SDS011;3298;42.688;23.366;2023-03-03T02:43:23;5.93;;;4.80;;
6529;SDS011;3298;42.688;23.366;2023-03-03T02:45:54;5.30;;;4.20;;
6529;SDS011;3298;42.688;23.366;2023-03-03T02:48:21;5.40;;;3.97;;
6529;SDS011;3298;42.688;23.366;2023-03-03T02:50:48;5.07;;;4.57;;
6529;SDS011;3298;42.688;23.366;2023-03-03T02:53:14;4.87;;;3.90;;
6529;SDS011;3298;42.688;23.366;2023-03-03T02:55:41;4.80;;;4.40;;
6529;SDS011;3298;42.688;23.366;2023-03-03T02:58:08;5.93;;;4.63;;
6529;SDS011;3298;42.688;23.366;2023-03-03T03:00:36;5.23;;;4.83;;
6529;SDS011;3298;42.688;23.366;2023-03-03T03:03:03;6.17;;;5.57;;
6529;SDS011;3298;42.688;23.366;2023-03-03T03:05:29;5.43;;;5.13;;
6529;SDS011;3298;42.688;23.366;2023-03-03T03:07:56;7.37;;;6.73;;
6529;SDS011;3298;42.688;23.366;2023-03-03T03:10:23;4.50;;;4.10;;
6529;SDS011;3298;42.688;23.366;2023-03-03T03:12:50;5.30;;;4.90;;
6529;SDS011;3298;42.688;23.366;2023-03-03T03:15:17;6.80;;;5.70;;
6529;SDS011;3298;42.688;23.366;2023-03-03T03:17:45;5.40;;;5.00;;
6529;SDS011;3298;42.688;23.366;2023-03-03T03:20:12;4.57;;;4.17;;
6529;SDS011;3298;42.688;23.366;2023-03-03T03:22:39;6.93;;;5.57;;
6529;SDS011;3298;42.688;23.366;2023-03-03T03:25:06;6.43;;;5.93;;
6529;SDS011;3298;42.688;23.366;2023-03-03T03:27:33;6.20;;;5.70;;
6529;SDS011;3298;42.688;23.366;2023-03-03T03:30:00;6.50;;;5.90;;
6529;SDS011;3298;42.688;23.366;2023-03-03T03:32:27;8.13;;;5.73;;
6529;SDS011;3298;42.688;23.366;2023-03-03T03:34:55;6.07;;;5.57;;
6529;SDS011;3298;42.688;23.366;2023-03-03T03:37:22;6.90;;;6.13;;
6529;SDS011;3298;42.688;23.366;2023-03-03T03:39:48;7.40;;;6.70;;
6529;SDS011;3298;42.688;23.366;2023-03-03T03:42:15;5.77;;;5.23;;
6529;SDS011;3298;42.688;23.366;2023-03-03T03:44:42;8.33;;;6.10;;
6529;SDS011;3298;42.688;23.366;2023-03-03T03:47:09;7.53;;;4.97;;
6529;SDS011;3298;42.688;23.366;2023-03-03T03:49:36;6.07;;;5.47;;
6529;SDS011;3298;42.688;23.366;2023-03-03T03:52:04;6.03;;;5.53;;
6529;SDS011;3298;42.688;23.366;2023-03-03T03:54:31;6.33;;;5.00;;
6529;SDS011;3298;42.688;23.366;2023-03-03T03:56:57;6.10;;;5.50;;
6529;SDS011;3298;42.688;23.366;2023-03-03T03:59:25;6.90;;;6.30;;
6529;SDS011;3298;42.688;23.366;2023-03-03T04:01:52;8.03;;;5.97;;
6529;SDS011;3298;42.688;23.366;2023-03-03T04:04:19;6.73;;;6.07;;
6529;SDS011;3298;42.688;23.366;2023-03-03T04:06:45;5.83;;;5.40;;
6529;SDS011;3298;42.688;23.366;2023-03-03T04:09:14;9.17;;;6.27;;
6529;SDS011;3298;42.688;23.366;2023-03-03T04:11:41;6.97;;;6.43;;
6529;SDS011;3298;42.688;23.366;2023-03-03T04:14:08;6.00;;;5.50;;
6529;SDS011;3298;42.688;23.366;2023-03-03T04:16:35;10.00;;;6.73;;
6529;SDS011;3298;42.688;23.366;2023-03-03T04:19:02;8.93;;;7.63;;
6529;SDS011;3298;42.688;23.366;2023-03-03T04:21:29;8.07;;;7.13;;
6529;SDS011;3298;42.688;23.366;2023-03-03T04:23:55;7.17;;;6.50;;
6529;SDS011;3298;42.688;23.366;2023-03-03T04:26:24;7.87;;;7.07;;
6529;SDS011;3298;42.688;23.366;2023-03-03T04:28:51;8.63;;;7.87;;
6529;SDS011;3298;42.688;23.366;2023-03-03T04:31:17;10.57;;;6.83;;
6529;SDS011;3298;42.688;23.366;2023-03-03T04:33:44;12.07;;;8.10;;
6529;SDS011;3298;42.688;23.366;2023-03-03T04:36:11;11.90;;;7.97;;
6529;SDS011;3298;42.688;23.366;2023-03-03T04:38:38;13.60;;;8.33;;
6529;SDS011;3298;42.688;23.366;2023-03-03T04:41:05;13.80;;;8.43;;
6529;SDS011;3298;42.688;23.366;2023-03-03T04:43:33;9.23;;;8.33;;
6529;SDS011;3298;42.688;23.366;2023-03-03T04:46:00;14.50;;;8.10;;
6529;SDS011;3298;42.688;23.366;2023-03-03T04:48:27;11.43;;;9.07;;
6529;SDS011;3298;42.688;23.366;2023-03-03T04:50:54;9.87;;;8.77;;
6529;SDS011;3298;42.688;23.366;2023-03-03T04:53:21;13.33;;;9.63;;
6529;SDS011;3298;42.688;23.366;2023-03-03T04:55:48;10.50;;;8.73;;
6529;SDS011;3298;42.688;23.366;2023-03-03T04:58:15;16.80;;;9.80;;
6529;SDS011;3298;42.688;23.366;2023-03-03T05:00:46;12.47;;;9.23;;
6529;SDS011;3298;42.688;23.366;2023-03-03T05:03:13;10.60;;;9.10;;
6529;SDS011;3298;42.688;23.366;2023-03-03T05:05:40;10.73;;;8.37;;
6529;SDS011;3298;42.688;23.366;2023-03-03T05:08:06;10.20;;;8.80;;
6529;SDS011;3298;42.688;23.366;2023-03-03T05:10:33;17.37;;;9.10;;
6529;SDS011;3298;42.688;23.366;2023-03-03T05:13:01;10.23;;;8.23;;
6529;SDS011;3298;42.688;23.366;2023-03-03T05:15:27;12.03;;;10.07;;
6529;SDS011;3298;42.688;23.366;2023-03-03T05:17:55;15.13;;;9.67;;
6529;SDS011;3298;42.688;23.366;2023-03-03T05:20:22;11.47;;;8.97;;
6529;SDS011;3298;42.688;23.366;2023-03-03T05:22:50;12.80;;;8.73;;
6529;SDS011;3298;42.688;23.366;2023-03-03T05:25:17;14.60;;;9.00;;
6529;SDS011;3298;42.688;23.366;2023-03-03T05:27:45;14.47;;;10.63;;
6529;SDS011;3298;42.688;23.366;2023-03-03T05:30:12;10.60;;;8.50;;
6529;SDS011;3298;42.688;23.366;2023-03-03T05:32:39;15.70;;;9.67;;
6529;SDS011;3298;42.688;23.366;2023-03-03T05:35:07;10.77;;;8.97;;
6529;SDS011;3298;42.688;23.366;2023-03-03T05:37:35;8.90;;;7.73;;
6529;SDS011;3298;42.688;23.366;2023-03-03T05:40:04;10.37;;;8.53;;
6529;SDS011;3298;42.688;23.366;2023-03-03T05:42:32;14.13;;;8.97;;
6529;SDS011;3298;42.688;23.366;2023-03-03T05:44:58;10.80;;;9.40;;
6529;SDS011;3298;42.688;23.366;2023-03-03T05:47:25;10.13;;;7.90;;
6529;SDS011;3298;42.688;23.366;2023-03-03T05:49:52;10.70;;;9.20;;
6529;SDS011;3298;42.688;23.366;2023-03-03T05:52:20;12.23;;;9.07;;
6529;SDS011;3298;42.688;23.366;2023-03-03T05:54:48;11.83;;;9.87;;
6529;SDS011;3298;42.688;23.366;2023-03-03T05:57:15;10.83;;;8.30;;
6529;SDS011;3298;42.688;23.366;2023-03-03T05:59:42;13.37;;;8.33;;
6529;SDS011;3298;42.688;23.366;2023-03-03T06:02:08;10.87;;;8.57;;
6529;SDS011;3298;42.688;23.366;2023-03-03T06:04:35;9.73;;;8.00;;
6529;SDS011;3298;42.688;23.366;2023-03-03T06:07:02;14.57;;;9.10;;
6529;SDS011;3298;42.688;23.366;2023-03-03T06:09:30;11.83;;;9.77;;
6529;SDS011;3298;42.688;23.366;2023-03-03T06:11:57;8.50;;;7.67;;
6529;SDS011;3298;42.688;23.366;2023-03-03T06:14:24;10.83;;;9.57;;
6529;SDS011;3298;42.688;23.366;2023-03-03T06:16:50;9.10;;;8.03;;
6529;SDS011;3298;42.688;23.366;2023-03-03T06:19:17;12.50;;;9.10;;
6529;SDS011;3298;42.688;23.366;2023-03-03T06:21:44;9.87;;;8.93;;
6529;SDS011;3298;42.688;23.366;2023-03-03T06:24:11;8.03;;;7.23;;
6529;SDS011;3298;42.688;23.366;2023-03-03T06:26:39;14.47;;;8.93;;
6529;SDS011;3298;42.688;23.366;2023-03-03T06:29:06;8.57;;;7.73;;
6529;SDS011;3298;42.688;23.366;2023-03-03T06:31:32;8.87;;;8.03;;
6529;SDS011;3298;42.688;23.366;2023-03-03T06:33:59;8.07;;;7.40;;
6529;SDS011;3298;42.688;23.366;2023-03-03T06:36:26;8.47;;;7.67;;
6529;SDS011;3298;42.688;23.366;2023-03-03T06:38:53;12.10;;;8.03;;
6529;SDS011;3298;42.688;23.366;2023-03-03T06:41:20;12.07;;;9.60;;
6529;SDS011;3298;42.688;23.366;2023-03-03T06:43:48;10.03;;;9.00;;
6529;SDS011;3298;42.688;23.366;2023-03-03T06:46:15;11.53;;;9.20;;
6529;SDS011;3298;42.688;23.366;2023-03-03T06:48:42;10.37;;;9.03;;
6529;SDS011;3298;42.688;23.366;2023-03-03T06:51:15;16.47;;;9.73;;
6529;SDS011;3298;42.688;23.366;2023-03-03T06:53:47;8.33;;;7.53;;
6529;SDS011;3298;42.688;23.366;2023-03-03T06:56:15;9.23;;;8.33;;
6529;SDS011;3298;42.688;23.366;2023-03-03T06:58:43;10.00;;;7.87;;
6529;SDS011;3298;42.688;23.366;2023-03-03T07:01:13;8.77;;;8.03;;
6529;SDS011;3298;42.688;23.366;2023-03-03T07:03:42;9.50;;;8.03;;
6529;SDS011;3298;42.688;23.366;2023-03-03T07:06:13;11.90;;;9.67;;
6529;SDS011;3298;42.688;23.366;2023-03-03T07:08:45;9.77;;;8.60;;
6529;SDS011;3298;42.688;23.366;2023-03-03T07:11:13;10.83;;;9.47;;
6529;SDS011;3298;42.688;23.366;2023-03-03T07:13:44;8.33;;;7.47;;
6529;SDS011;3298;42.688;23.366;2023-03-03T07:16:14;9.87;;;8.87;;
6529;SDS011;3298;42.688;23.366;2023-03-03T07:18:44;10.23;;;8.67;;
6529;SDS011;3298;42.688;23.366;2023-03-03T07:21:16;9.03;;;7.83;;
6529;SDS011;3298;42.688;23.366;2023-03-03T07:23:45;9.30;;;8.47;;
6529;SDS011;3298;42.688;23.366;2023-03-03T07:26:14;12.97;;;9.50;;
6529;SDS011;3298;42.688;23.366;2023-03-03T07:28:43;8.37;;;7.53;;
6529;SDS011;3298;42.688;23.366;2023-03-03T07:31:30;8.87;;;8.03;;
6529;SDS011;3298;42.688;23.366;2023-03-03T07:34:01;9.13;;;8.30;;
6529;SDS011;3298;42.688;23.366;2023-03-03T07:36:40;8.70;;;8.00;;
6529;SDS011;3298;42.688;23.366;2023-03-03T07:39:13;13.93;;;10.97;;
6529;SDS011;3298;42.688;23.366;2023-03-03T07:41:50;12.17;;;8.83;;
6529;SDS011;3298;42.688;23.366;2023-03-03T07:44:18;10.40;;;8.27;;
6529;SDS011;3298;42.688;23.366;2023-03-03T07:46:49;8.10;;;7.37;;
6529;SDS011;3298;42.688;23.366;2023-03-03T07:49:20;7.37;;;6.77;;
6529;SDS011;3298;42.688;23.366;2023-03-03T07:51:51;8.43;;;7.07;;
6529;SDS011;3298;42.688;23.366;2023-03-03T07:54:26;7.60;;;6.40;;
6529;SDS011;3298;42.688;23.366;2023-03-03T07:57:01;9.50;;;7.73;;
6529;SDS011;3298;42.688;23.366;2023-03-03T07:59:40;9.80;;;8.10;;
6529;SDS011;3298;42.688;23.366;2023-03-03T08:02:19;9.10;;;7.33;;
6529;SDS011;3298;42.688;23.366;2023-03-03T08:05:00;7.47;;;6.67;;
6529;SDS011;3298;42.688;23.366;2023-03-03T08:07:27;9.93;;;8.27;;
6529;SDS011;3298;42.688;23.366;2023-03-03T08:09:57;9.40;;;8.43;;
6529;SDS011;3298;42.688;23.366;2023-03-03T08:12:30;10.63;;;7.87;;
6529;SDS011;3298;42.688;23.366;2023-03-03T08:15:13;6.27;;;5.70;;
6529;SDS011;3298;42.688;23.366;2023-03-03T08:17:50;7.90;;;7.10;;
6529;SDS011;3298;42.688;23.366;2023-03-03T08:23:16;7.53;;;6.77;;
6529;SDS011;3298;42.688;23.366;2023-03-03T08:25:45;9.63;;;8.10;;
6529;SDS011;3298;42.688;23.366;2023-03-03T08:28:13;13.10;;;9.23;;
6529;SDS011;3298;42.688;23.366;2023-03-03T08:30:41;11.90;;;9.20;;
6529;SDS011;3298;42.688;23.366;2023-03-03T08:33:09;12.93;;;9.40;;
6529;SDS011;3298;42.688;23.366;2023-03-03T08:35:37;9.70;;;8.63;;
6529;SDS011;3298;42.688;23.366;2023-03-03T08:38:04;13.00;;;9.30;;
6529;SDS011;3298;42.688;23.366;2023-03-03T08:40:31;9.43;;;8.43;;
6529;SDS011;3298;42.688;23.366;2023-03-03T08:42:58;13.73;;;8.80;;
6529;SDS011;3298;42.688;23.366;2023-03-03T08:45:26;11.43;;;8.23;;
6529;SDS011;3298;42.688;23.366;2023-03-03T08:47:53;9.57;;;7.00;;
6529;SDS011;3298;42.688;23.366;2023-03-03T08:50:21;7.53;;;6.93;;
6529;SDS011;3298;42.688;23.366;2023-03-03T08:52:49;7.50;;;6.43;;
6529;SDS011;3298;42.688;23.366;2023-03-03T08:55:16;9.47;;;6.77;;
6529;SDS011;3298;42.688;23.366;2023-03-03T08:57:43;10.03;;;8.17;;
6529;SDS011;3298;42.688;23.366;2023-03-03T09:00:10;7.80;;;7.10;;
6529;SDS011;3298;42.688;23.366;2023-03-03T09:02:39;7.27;;;6.07;;
6529;SDS011;3298;42.688;23.366;2023-03-03T09:05:06;9.87;;;6.70;;
6529;SDS011;3298;42.688;23.366;2023-03-03T09:07:36;5.70;;;5.10;;
6529;SDS011;3298;42.688;23.366;2023-03-03T09:10:04;6.03;;;5.27;;
6529;SDS011;3298;42.688;23.366;2023-03-03T09:12:32;5.80;;;5.23;;
6529;SDS011;3298;42.688;23.366;2023-03-03T09:15:05;5.07;;;4.47;;
6529;SDS011;3298;42.688;23.366;2023-03-03T09:17:38;5.57;;;5.03;;
6529;SDS011;3298;42.688;23.366;2023-03-03T09:20:14;4.73;;;4.33;;
6529;SDS011;3298;42.688;23.366;2023-03-03T09:22:49;5.50;;;4.93;;
6529;SDS011;3298;42.688;23.366;2023-03-03T09:25:18;6.00;;;5.40;;
6529;SDS011;3298;42.688;23.366;2023-03-03T09:27:48;7.20;;;6.40;;
6529;SDS011;3298;42.688;23.366;2023-03-03T09:30:26;8.27;;;7.30;;
6529;SDS011;3298;42.688;23.366;2023-03-03T09:33:01;8.80;;;7.90;;
6529;SDS011;3298;42.688;23.366;2023-03-03T09:35:45;7.53;;;6.83;;
6529;SDS011;3298;42.688;23.366;2023-03-03T09:38:21;5.97;;;4.80;;
6529;SDS011;3298;42.688;23.366;2023-03-03T09:40:54;5.80;;;4.97;;
6529;SDS011;3298;42.688;23.366;2023-03-03T09:43:34;6.53;;;5.93;;
6529;SDS011;3298;42.688;23.366;2023-03-03T09:46:08;7.47;;;6.77;;
6529;SDS011;3298;42.688;23.366;2023-03-03T09:48:47;7.50;;;5.83;;
6529;SDS011;3298;42.688;23.366;2023-03-03T09:51:28;8.73;;;6.90;;
6529;SDS011;3298;42.688;23.366;2023-03-03T09:54:09;6.90;;;6.30;;
6529;SDS011;3298;42.688;23.366;2023-03-03T09:56:48;6.10;;;5.60;;
6529;SDS011;3298;42.688;23.366;2023-03-03T09:59:29;6.80;;;6.20;;
6529;SDS011;3298;42.688;23.366;2023-03-03T10:02:23;8.50;;;6.47;;
6529;SDS011;3298;42.688;23.366;2023-03-03T10:07:48;6.40;;;5.57;;
6529;SDS011;3298;42.688;23.366;2023-03-03T10:10:28;6.17;;;5.60;;
6529;SDS011;3298;42.688;23.366;2023-03-03T10:13:14;7.03;;;6.37;;
6529;SDS011;3298;42.688;23.366;2023-03-03T10:15:53;8.60;;;6.43;;
6529;SDS011;3298;42.688;23.366;2023-03-03T10:18:35;7.37;;;5.73;;
6529;SDS011;3298;42.688;23.366;2023-03-03T10:21:08;7.03;;;6.43;;
6529;SDS011;3298;42.688;23.366;2023-03-03T10:23:50;6.37;;;5.73;;
6529;SDS011;3298;42.688;23.366;2023-03-03T10:26:22;7.47;;;6.70;;
6529;SDS011;3298;42.688;23.366;2023-03-03T10:29:18;9.77;;;6.77;;
6529;SDS011;3298;42.688;23.366;2023-03-03T10:31:58;8.33;;;7.53;;
6529;SDS011;3298;42.688;23.366;2023-03-03T10:34:49;7.67;;;6.83;;
6529;SDS011;3298;42.688;23.366;2023-03-03T10:37:27;7.17;;;6.37;;
6529;SDS011;3298;42.688;23.366;2023-03-03T10:40:08;7.43;;;6.73;;
6529;SDS011;3298;42.688;23.366;2023-03-03T10:42:51;7.03;;;6.37;;
6529;SDS011;3298;42.688;23.366;2023-03-03T10:48:28;7.43;;;6.73;;
6529;SDS011;3298;42.688;23.366;2023-03-03T10:51:18;8.10;;;7.30;;
6529;SDS011;3298;42.688;23.366;2023-03-03T10:53:54;7.73;;;7.03;;
6529;SDS011;3298;42.688;23.366;2023-03-03T10:56:33;9.23;;;7.63;;
6529;SDS011;3298;42.688;23.366;2023-03-03T10:59:16;8.07;;;7.37;;
6529;SDS011;3298;42.688;23.366;2023-03-03T11:02:00;8.63;;;7.83;;
6529;SDS011;3298;42.688;23.366;2023-03-03T11:04:40;8.43;;;7.20;;
6529;SDS011;3298;42.688;23.366;2023-03-03T11:07:14;8.53;;;7.73;;
6529;SDS011;3298;42.688;23.366;2023-03-03T11:10:05;9.97;;;8.60;;
6529;SDS011;3298;42.688;23.366;2023-03-03T11:12:46;11.50;;;8.60;;
6529;SDS011;3298;42.688;23.366;2023-03-03T11:15:31;9.00;;;8.20;;
6529;SDS011;3298;42.688;23.366;2023-03-03T11:18:10;13.20;;;8.30;;
6529;SDS011;3298;42.688;23.366;2023-03-03T11:20:50;8.40;;;7.60;;
6529;SDS011;3298;42.688;23.366;2023-03-03T11:23:31;9.27;;;8.23;;
6529;SDS011;3298;42.688;23.366;2023-03-03T11:26:20;8.63;;;7.83;;
6529;SDS011;3298;42.688;23.366;2023-03-03T11:29:03;8.27;;;7.47;;
6529;SDS011;3298;42.688;23.366;2023-03-03T11:31:43;12.57;;;7.83;;
6529;SDS011;3298;42.688;23.366;2023-03-03T11:34:18;9.47;;;8.60;;
6529;SDS011;3298;42.688;23.366;2023-03-03T11:37:01;10.20;;;9.17;;
6529;SDS011;3298;42.688;23.366;2023-03-03T11:39:32;9.70;;;8.80;;
6529;SDS011;3298;42.688;23.366;2023-03-03T11:42:00;9.33;;;8.53;;
6529;SDS011;3298;42.688;23.366;2023-03-03T11:44:34;9.47;;;8.50;;
6529;SDS011;3298;42.688;23.366;2023-03-03T11:47:08;12.43;;;9.30;;
6529;SDS011;3298;42.688;23.366;2023-03-03T11:49:46;12.67;;;10.27;;
6529;SDS011;3298;42.688;23.366;2023-03-03T11:52:23;10.07;;;9.07;;
6529;SDS011;3298;42.688;23.366;2023-03-03T11:54:59;9.73;;;8.67;;
6529;SDS011;3298;42.688;23.366;2023-03-03T11:57:31;10.33;;;9.27;;
6529;SDS011;3298;42.688;23.366;2023-03-03T12:00:14;10.87;;;8.97;;
6529;SDS011;3298;42.688;23.366;2023-03-03T12:02:55;15.67;;;10.07;;
6529;SDS011;3298;42.688;23.366;2023-03-03T12:05:54;11.50;;;10.33;;
6529;SDS011;3298;42.688;23.366;2023-03-03T12:08:47;11.07;;;9.97;;
6529;SDS011;3298;42.688;23.366;2023-03-03T12:11:27;11.13;;;9.90;;
6529;SDS011;3298;42.688;23.366;2023-03-03T12:14:03;11.73;;;10.13;;
6529;SDS011;3298;42.688;23.366;2023-03-03T12:16:42;13.20;;;11.60;;
6529;SDS011;3298;42.688;23.366;2023-03-03T12:19:23;11.87;;;10.77;;
6529;SDS011;3298;42.688;23.366;2023-03-03T12:22:17;15.17;;;10.93;;
6529;SDS011;3298;42.688;23.366;2023-03-03T12:27:49;12.27;;;11.00;;
6529;SDS011;3298;42.688;23.366;2023-03-03T12:30:32;13.20;;;11.83;;
6529;SDS011;3298;42.688;23.366;2023-03-03T12:33:17;11.27;;;10.17;;
6529;SDS011;3298;42.688;23.366;2023-03-03T12:35:57;17.20;;;9.47;;
6529;SDS011;3298;42.688;23.366;2023-03-03T12:38:34;13.40;;;11.40;;
6529;SDS011;3298;42.688;23.366;2023-03-03T12:41:06;13.87;;;10.77;;
6529;SDS011;3298;42.688;23.366;2023-03-03T12:43:43;12.10;;;10.80;;
6529;SDS011;3298;42.688;23.366;2023-03-03T12:46:20;12.13;;;9.73;;
6529;SDS011;3298;42.688;23.366;2023-03-03T12:48:50;12.80;;;10.27;;
6529;SDS011;3298;42.688;23.366;2023-03-03T12:51:22;11.03;;;9.90;;
6529;SDS011;3298;42.688;23.366;2023-03-03T12:54:01;11.40;;;10.20;;
6529;SDS011;3298;42.688;23.366;2023-03-03T12:56:40;10.63;;;9.47;;
6529;SDS011;3298;42.688;23.366;2023-03-03T12:59:15;10.23;;;9.00;;
6529;SDS011;3298;42.688;23.366;2023-03-03T13:01:57;8.47;;;7.83;;
6529;SDS011;3298;42.688;23.366;2023-03-03T13:04:45;10.07;;;8.70;;
6529;SDS011;3298;42.688;23.366;2023-03-03T13:07:20;8.57;;;7.77;;
6529;SDS011;3298;42.688;23.366;2023-03-03T13:09:59;7.90;;;7.20;;
6529;SDS011;3298;42.688;23.366;2023-03-03T13:12:34;7.97;;;7.23;;
6529;SDS011;3298;42.688;23.366;2023-03-03T13:15:12;7.57;;;6.83;;
6529;SDS011;3298;42.688;23.366;2023-03-03T13:17:48;8.17;;;7.37;;
6529;SDS011;3298;42.688;23.366;2023-03-03T13:20:25;9.00;;;8.17;;
6529;SDS011;3298;42.688;23.366;2023-03-03T13:23:03;6.47;;;5.97;;
6529;SDS011;3298;42.688;23.366;2023-03-03T13:25:45;6.63;;;5.70;;
6529;SDS011;3298;42.688;23.366;2023-03-03T13:28:24;7.20;;;6.60;;
6529;SDS011;3298;42.688;23.366;2023-03-03T13:31:00;6.83;;;6.17;;
6529;SDS011;3298;42.688;23.366;2023-03-03T13:33:33;7.10;;;6.40;;
6529;SDS011;3298;42.688;23.366;2023-03-03T13:36:01;6.70;;;6.10;;
6529;SDS011;3298;42.688;23.366;2023-03-03T13:38:34;6.27;;;5.70;;
6529;SDS011;3298;42.688;23.366;2023-03-03T13:41:06;5.03;;;4.63;;
6529;SDS011;3298;42.688;23.366;2023-03-03T13:43:42;4.77;;;4.37;;
6529;SDS011;3298;42.688;23.366;2023-03-03T13:46:15;5.43;;;5.00;;
6529;SDS011;3298;42.688;23.366;2023-03-03T13:48:54;6.63;;;6.13;;
6529;SDS011;3298;42.688;23.366;2023-03-03T13:51:41;5.27;;;4.87;;
6529;SDS011;3298;42.688;23.366;2023-03-03T13:54:17;5.53;;;5.20;;
6529;SDS011;3298;42.688;23.366;2023-03-03T13:57:04;6.77;;;6.10;;
6529;SDS011;3298;42.688;23.366;2023-03-03T13:59:42;7.60;;;5.50;;
6529;SDS011;3298;42.688;23.366;2023-03-03T14:02:24;7.53;;;6.83;;
6529;SDS011;3298;42.688;23.366;2023-03-03T14:05:10;6.70;;;6.13;;
6529;SDS011;3298;42.688;23.366;2023-03-03T14:07:42;8.67;;;6.33;;
6529;SDS011;3298;42.688;23.366;2023-03-03T14:10:19;19.40;;;11.33;;
6529;SDS011;3298;42.688;23.366;2023-03-03T14:12:50;19.63;;;11.03;;
6529;SDS011;3298;42.688;23.366;2023-03-03T14:15:26;15.40;;;10.00;;
6529;SDS011;3298;42.688;23.366;2023-03-03T14:18:02;9.30;;;8.27;;
6529;SDS011;3298;42.688;23.366;2023-03-03T14:20:42;13.47;;;9.60;;
6529;SDS011;3298;42.688;23.366;2023-03-03T14:23:13;10.10;;;8.80;;
6529;SDS011;3298;42.688;23.366;2023-03-03T14:25:58;9.07;;;8.37;;
6529;SDS011;3298;42.688;23.366;2023-03-03T14:28:36;8.80;;;7.50;;
6529;SDS011;3298;42.688;23.366;2023-03-03T14:31:09;7.90;;;7.10;;
6529;SDS011;3298;42.688;23.366;2023-03-03T14:33:42;7.90;;;7.27;;
6529;SDS011;3298;42.688;23.366;2023-03-03T14:36:12;8.87;;;8.10;;
6529;SDS011;3298;42.688;23.366;2023-03-03T14:38:46;7.73;;;7.13;;
6529;SDS011;3298;42.688;23.366;2023-03-03T14:41:21;9.60;;;8.70;;
6529;SDS011;3298;42.688;23.366;2023-03-03T14:44:23;8.83;;;7.90;;
6529;SDS011;3298;42.688;23.366;2023-03-03T14:47:10;9.67;;;8.77;;
6529;SDS011;3298;42.688;23.366;2023-03-03T14:49:45;9.77;;;8.77;;
6529;SDS011;3298;42.688;23.366;2023-03-03T14:52:18;9.97;;;7.93;;
6529;SDS011;3298;42.688;23.366;2023-03-03T14:54:48;10.53;;;7.13;;
6529;SDS011;3298;42.688;23.366;2023-03-03T14:57:19;7.97;;;7.17;;
6529;SDS011;3298;42.688;23.366;2023-03-03T14:59:54;6.70;;;6.20;;
6529;SDS011;3298;42.688;23.366;2023-03-03T15:02:30;5.20;;;4.87;;
6529;SDS011;3298;42.688;23.366;2023-03-03T15:05:19;5.47;;;4.97;;
6529;SDS011;3298;42.688;23.366;2023-03-03T15:07:50;6.00;;;5.60;;
6529;SDS011;3298;42.688;23.366;2023-03-03T15:10:26;4.23;;;4.03;;
6529;SDS011;3298;42.688;23.366;2023-03-03T15:12:57;5.27;;;4.80;;
6529;SDS011;3298;42.688;23.366;2023-03-03T15:15:24;5.20;;;4.90;;
6529;SDS011;3298;42.688;23.366;2023-03-03T15:17:56;5.33;;;5.03;;
6529;SDS011;3298;42.688;23.366;2023-03-03T15:20:40;5.20;;;4.80;;
6529;SDS011;3298;42.688;23.366;2023-03-03T15:23:17;6.53;;;6.10;;
6529;SDS011;3298;42.688;23.366;2023-03-03T15:25:59;6.80;;;6.10;;
6529;SDS011;3298;42.688;23.366;2023-03-03T15:28:34;6.97;;;6.43;;
6529;SDS011;3298;42.688;23.366;2023-03-03T15:31:11;8.93;;;8.03;;
6529;SDS011;3298;42.688;23.366;2023-03-03T15:33:50;7.97;;;7.17;;
6529;SDS011;3298;42.688;23.366;2023-03-03T15:36:28;8.37;;;7.67;;
6529;SDS011;3298;42.688;23.366;2023-03-03T15:39:06;7.87;;;7.23;;
6529;SDS011;3298;42.688;23.366;2023-03-03T15:41:43;7.70;;;7.10;;